createdAt,value
2019-05-23T00:00:39.814Z,15.10
2019-05-23T00:03:10.987Z,13.85
2019-05-23T00:05:42.335Z,13.90
2019-05-23T00:08:13.451Z,13.38
2019-05-23T00:10:44.789Z,13.48
2019-05-23T00:13:15.872Z,12.37
2019-05-23T00:15:48.019Z,13.13
2019-05-23T00:18:21.190Z,12.82
2019-05-23T00:20:51.802Z,12.20
2019-05-23T00:23:22.303Z,11.12
2019-05-23T00:25:52.850Z,11.55
2019-05-23T00:28:22.995Z,10.03
2019-05-23T00:30:54.082Z,10.40
2019-05-23T00:33:25.156Z,9.80
2019-05-23T00:35:55.072Z,9.63
2019-05-23T00:38:24.906Z,10.28
2019-05-23T00:40:55.890Z,9.45
2019-05-23T00:43:27.662Z,9.28
2019-05-23T00:45:57.191Z,8.68
2019-05-23T00:48:27.288Z,8.10
2019-05-23T00:50:57.325Z,8.50
2019-05-23T00:53:28.382Z,9.65
2019-05-23T00:55:59.187Z,8.83
2019-05-23T00:58:30.558Z,8.45
2019-05-23T01:01:02.663Z,9.35
2019-05-23T01:03:33.537Z,9.05
2019-05-23T01:06:03.281Z,8.40
2019-05-23T01:08:33.305Z,8.65
2019-05-23T01:11:03.941Z,8.73
2019-05-23T01:13:33.918Z,8.00
2019-05-23T01:16:04.229Z,8.25
2019-05-23T01:18:35.104Z,9.15
2019-05-23T01:21:07.124Z,8.78
2019-05-23T01:23:38.957Z,8.93
2019-05-23T01:26:10.200Z,8.23
2019-05-23T01:28:40.042Z,8.73
2019-05-23T01:31:11.363Z,9.13
2019-05-23T01:33:42.465Z,8.70
2019-05-23T01:36:12.017Z,9.60
2019-05-23T01:38:42.926Z,8.85
2019-05-23T01:41:12.771Z,9.10
2019-05-23T01:43:43.466Z,8.40
2019-05-23T01:46:13.293Z,9.03
2019-05-23T01:48:43.682Z,9.20
2019-05-23T01:51:14.022Z,9.85
2019-05-23T01:53:43.469Z,9.25
2019-05-23T01:56:13.503Z,9.95
2019-05-23T01:58:42.951Z,9.95
2019-05-23T02:01:12.591Z,10.53
2019-05-23T02:03:42.443Z,10.45
2019-05-23T02:06:12.065Z,10.68
2019-05-23T02:08:41.997Z,11.03
2019-05-23T02:11:12.393Z,10.98
2019-05-23T02:13:41.905Z,10.93
2019-05-23T02:16:11.925Z,10.85
2019-05-23T02:18:42.172Z,10.03
2019-05-23T02:21:12.874Z,11.15
2019-05-23T02:23:43.385Z,10.30
2019-05-23T02:26:12.993Z,10.72
2019-05-23T02:28:43.380Z,11.08
2019-05-23T02:31:14.286Z,10.53
2019-05-23T02:33:45.135Z,10.68
2019-05-23T02:36:14.929Z,10.85
2019-05-23T02:38:46.714Z,11.00
2019-05-23T02:41:18.016Z,11.30
2019-05-23T02:43:49.934Z,11.73
2019-05-23T02:46:21.035Z,11.93
2019-05-23T02:48:52.655Z,12.75
2019-05-23T02:51:27.350Z,11.48
2019-05-23T02:53:58.597Z,12.30
2019-05-23T02:56:33.018Z,12.68
2019-05-23T02:59:07.937Z,12.70
2019-05-23T03:04:14.423Z,12.68
2019-05-23T03:06:45.436Z,13.08
2019-05-23T03:09:17.095Z,13.75
2019-05-23T03:11:49.005Z,14.13
2019-05-23T03:14:19.196Z,13.65
2019-05-23T03:16:52.994Z,15.00
2019-05-23T03:19:27.360Z,14.95
2019-05-23T03:22:00.918Z,15.78
2019-05-23T03:24:31.305Z,15.13
2019-05-23T03:27:03.701Z,14.73
2019-05-23T03:29:34.482Z,14.70
2019-05-23T03:32:05.887Z,13.93
2019-05-23T03:34:37.543Z,13.62
2019-05-23T03:37:07.974Z,14.25
2019-05-23T03:39:38.021Z,14.05
2019-05-23T03:42:08.497Z,13.95
2019-05-23T03:44:39.146Z,13.90
2019-05-23T03:47:10.807Z,13.90
2019-05-23T03:49:40.421Z,13.38
2019-05-23T03:52:11.306Z,14.68
2019-05-23T03:54:42.672Z,13.75
2019-05-23T03:57:12.142Z,13.13
2019-05-23T03:59:42.294Z,13.83
2019-05-23T04:02:13.496Z,14.47
2019-05-23T04:04:42.961Z,15.32
2019-05-23T04:07:13.947Z,14.10
2019-05-23T04:09:43.741Z,14.03
2019-05-23T04:12:13.470Z,15.85
2019-05-23T04:14:43.283Z,14.07
2019-05-23T04:17:13.215Z,14.90
2019-05-23T04:19:42.960Z,15.45
2019-05-23T04:22:12.429Z,15.70
2019-05-23T04:24:42.247Z,14.70
2019-05-23T04:27:11.888Z,14.70
2019-05-23T04:29:41.331Z,15.70
2019-05-23T04:32:11.058Z,14.33
2019-05-23T04:34:40.705Z,13.65
2019-05-23T04:37:10.204Z,14.05
2019-05-23T04:39:39.714Z,13.93
2019-05-23T04:42:09.435Z,13.08
2019-05-23T04:44:43.009Z,13.03
2019-05-23T04:47:10.684Z,14.25
2019-05-23T04:49:40.211Z,12.98
2019-05-23T04:52:10.149Z,14.10
2019-05-23T04:54:39.765Z,13.88
2019-05-23T04:57:10.287Z,13.50
2019-05-23T04:59:40.169Z,13.75
2019-05-23T05:02:24.874Z,14.07
2019-05-23T05:04:41.525Z,14.23
2019-05-23T05:07:11.138Z,13.15
2019-05-23T05:09:41.332Z,13.00
2019-05-23T05:12:12.680Z,13.58
2019-05-23T05:14:42.296Z,12.93
2019-05-23T05:17:12.078Z,13.25
2019-05-23T05:19:41.914Z,13.58
2019-05-23T05:22:13.298Z,12.88
2019-05-23T05:24:42.789Z,11.45
2019-05-23T05:27:12.607Z,11.73
2019-05-23T05:29:42.088Z,10.70
2019-05-23T05:32:11.727Z,10.63
2019-05-23T05:34:41.200Z,10.85
2019-05-23T05:37:10.653Z,11.25
2019-05-23T05:39:40.176Z,10.88
2019-05-23T05:42:09.795Z,10.75
2019-05-23T05:44:39.935Z,10.70
2019-05-23T05:47:10.337Z,10.35
2019-05-23T05:49:42.338Z,10.88
2019-05-23T05:52:12.913Z,10.90
2019-05-23T05:54:42.438Z,10.43
2019-05-23T05:57:12.007Z,9.75
2019-05-23T05:59:41.642Z,10.10
2019-05-23T06:02:12.879Z,9.78
2019-05-23T06:04:42.462Z,10.15
2019-05-23T06:07:14.609Z,9.83
2019-05-23T06:09:45.762Z,9.78
2019-05-23T06:12:15.280Z,9.63
2019-05-23T06:14:46.655Z,9.58
2019-05-23T06:17:17.818Z,9.00
2019-05-23T06:19:48.239Z,9.08
2019-05-23T06:22:18.516Z,9.40
2019-05-23T06:24:53.394Z,9.35
2019-05-23T06:27:20.351Z,8.45
2019-05-23T06:29:50.129Z,8.83
2019-05-23T06:32:21.203Z,9.00
2019-05-23T06:34:51.087Z,8.83
2019-05-23T06:37:21.168Z,8.50
2019-05-23T06:39:50.600Z,8.65
2019-05-23T06:42:20.137Z,8.70
2019-05-23T06:44:49.666Z,8.63
2019-05-23T06:47:19.294Z,8.93
2019-05-23T06:49:48.765Z,9.03
2019-05-23T06:52:18.203Z,8.70
2019-05-23T06:54:47.661Z,7.97
2019-05-23T06:57:17.454Z,8.10
2019-05-23T06:59:46.920Z,8.43
2019-05-23T07:02:16.587Z,8.23
2019-05-23T07:04:46.951Z,7.78
2019-05-23T07:07:16.556Z,8.40
2019-05-23T07:09:46.166Z,8.28
2019-05-23T07:12:15.797Z,8.23
2019-05-23T07:14:45.391Z,8.38
2019-05-23T07:17:15.624Z,7.75
2019-05-23T07:19:45.144Z,8.20
2019-05-23T07:22:18.379Z,7.72
2019-05-23T07:24:57.372Z,7.65
2019-05-23T07:27:18.755Z,7.75
2019-05-23T07:29:48.204Z,8.20
2019-05-23T07:32:17.678Z,8.40
2019-05-23T07:34:47.141Z,7.47
2019-05-23T07:37:16.910Z,8.70
2019-05-23T07:39:46.519Z,7.70
2019-05-23T07:42:16.157Z,7.50
2019-05-23T07:44:48.526Z,7.65
2019-05-23T07:47:18.734Z,8.43
2019-05-23T07:49:48.416Z,7.55
2019-05-23T07:52:18.246Z,7.65
2019-05-23T07:54:49.683Z,8.50
2019-05-23T07:57:21.391Z,7.92
2019-05-23T07:59:51.281Z,7.70
2019-05-23T08:02:26.865Z,6.90
2019-05-23T08:04:57.151Z,7.62
2019-05-23T08:07:39.707Z,7.40
2019-05-23T08:10:09.935Z,7.28
2019-05-23T08:12:39.796Z,7.40
2019-05-23T08:15:11.154Z,7.70
2019-05-23T08:17:40.681Z,7.12
2019-05-23T08:20:12.496Z,7.75
2019-05-23T08:22:42.207Z,7.00
2019-05-23T08:25:11.935Z,7.30
2019-05-23T08:27:41.471Z,6.80
2019-05-23T08:30:11.597Z,6.33
2019-05-23T08:32:41.080Z,6.72
2019-05-23T08:35:15.992Z,6.42
2019-05-23T08:37:42.201Z,5.60
2019-05-23T08:40:12.860Z,6.55
2019-05-23T08:42:42.310Z,5.87
2019-05-23T08:45:12.645Z,6.70
2019-05-23T08:47:42.148Z,6.87
2019-05-23T08:50:12.409Z,6.70
2019-05-23T08:52:42.203Z,7.33
2019-05-23T08:55:16.449Z,6.85
2019-05-23T08:57:46.717Z,6.83
2019-05-23T09:00:17.077Z,7.87
2019-05-23T09:02:48.139Z,8.08
2019-05-23T09:05:19.206Z,8.23
2019-05-23T09:07:48.772Z,7.65
2019-05-23T09:10:19.468Z,7.50
2019-05-23T09:12:49.572Z,7.60
2019-05-23T09:15:19.281Z,7.87
2019-05-23T09:17:53.396Z,7.60
2019-05-23T09:20:22.375Z,7.25
2019-05-23T09:22:51.927Z,7.92
2019-05-23T09:25:21.584Z,6.67
2019-05-23T09:27:51.713Z,6.40
2019-05-23T09:30:22.392Z,6.15
2019-05-23T09:32:52.583Z,4.85
2019-05-23T09:35:22.504Z,3.27
2019-05-23T09:37:52.010Z,2.92
2019-05-23T09:40:21.916Z,2.60
2019-05-23T09:42:51.341Z,2.20
2019-05-23T09:45:21.261Z,2.87
2019-05-23T09:47:51.618Z,4.20
2019-05-23T09:50:23.156Z,2.70
2019-05-23T09:52:52.830Z,2.72
2019-05-23T09:55:22.766Z,3.52
2019-05-23T09:57:52.206Z,2.85
2019-05-23T10:00:23.627Z,2.80
2019-05-23T10:02:53.240Z,3.55
2019-05-23T10:05:40.911Z,2.67
2019-05-23T10:07:54.098Z,2.15
2019-05-23T10:10:24.265Z,2.33
2019-05-23T10:12:53.726Z,2.17
2019-05-23T10:15:25.238Z,2.08
2019-05-23T10:17:54.866Z,2.10
2019-05-23T10:20:27.460Z,2.05
2019-05-23T10:22:56.929Z,2.20
2019-05-23T10:25:26.361Z,2.55
2019-05-23T10:27:55.977Z,2.58
2019-05-23T10:30:25.748Z,2.65
2019-05-23T10:32:55.196Z,2.40
2019-05-23T10:35:25.175Z,2.25
2019-05-23T10:37:54.657Z,2.30
2019-05-23T10:40:24.523Z,2.50
2019-05-23T10:42:54.184Z,2.60
2019-05-23T10:45:23.627Z,2.60
2019-05-23T10:47:53.265Z,2.70
2019-05-23T10:50:22.749Z,2.40
2019-05-23T10:52:52.196Z,2.52
2019-05-23T10:55:21.673Z,2.45
2019-05-23T10:57:51.278Z,3.05
2019-05-23T11:00:23.340Z,2.67
2019-05-23T11:02:52.965Z,2.80
2019-05-23T11:05:22.592Z,3.12
2019-05-23T11:07:52.340Z,3.40
2019-05-23T11:10:23.201Z,3.30
2019-05-23T11:12:52.938Z,3.27
2019-05-23T11:15:22.388Z,2.87
2019-05-23T11:17:53.808Z,2.70
2019-05-23T11:20:24.586Z,2.75
2019-05-23T11:22:54.109Z,2.85
2019-05-23T11:25:24.835Z,2.83
2019-05-23T11:27:54.347Z,2.80
2019-05-23T11:30:26.952Z,3.02
2019-05-23T11:32:56.406Z,2.98
2019-05-23T11:35:26.117Z,3.47
2019-05-23T11:37:55.647Z,3.30
2019-05-23T11:40:25.086Z,3.45
2019-05-23T11:42:54.562Z,3.60
2019-05-23T11:45:25.982Z,2.95
2019-05-23T11:47:55.438Z,2.50
2019-05-23T11:50:25.066Z,3.30
2019-05-23T11:52:56.112Z,3.17
2019-05-23T11:55:25.979Z,3.47
2019-05-23T11:57:55.485Z,3.37
2019-05-23T12:00:31.093Z,3.17
2019-05-23T12:03:01.041Z,3.12
2019-05-23T12:05:30.557Z,3.15
2019-05-23T12:07:59.975Z,3.00
2019-05-23T12:10:29.396Z,2.55
2019-05-23T12:12:59.026Z,2.60
2019-05-23T12:15:30.114Z,2.65
2019-05-23T12:17:59.797Z,3.05
2019-05-23T12:20:29.971Z,2.72
2019-05-23T12:22:59.585Z,2.92
2019-05-23T12:25:30.601Z,3.25
2019-05-23T12:28:00.193Z,2.80
2019-05-23T12:30:29.713Z,2.52
2019-05-23T12:32:59.191Z,2.42
2019-05-23T12:35:28.648Z,2.40
2019-05-23T12:38:02.003Z,2.50
2019-05-23T12:40:29.374Z,2.12
2019-05-23T12:42:58.806Z,2.17
2019-05-23T12:45:28.318Z,2.12
2019-05-23T12:47:59.471Z,2.50
2019-05-23T12:50:32.361Z,1.82
2019-05-23T12:53:02.270Z,2.40
2019-05-23T12:55:32.147Z,2.27
2019-05-23T12:58:01.687Z,2.25
2019-05-23T13:00:32.796Z,2.08
2019-05-23T13:03:02.731Z,2.30
2019-05-23T13:05:32.528Z,2.27
2019-05-23T13:08:05.945Z,1.80
2019-05-23T13:10:33.740Z,1.90
2019-05-23T13:13:03.204Z,2.02
2019-05-23T13:15:33.970Z,2.10
2019-05-23T13:18:03.571Z,2.20
2019-05-23T13:20:34.097Z,2.30
2019-05-23T13:23:04.091Z,2.17
2019-05-23T13:25:33.639Z,2.45
2019-05-23T13:28:03.093Z,2.80
2019-05-23T13:30:32.685Z,2.72
2019-05-23T13:33:03.754Z,2.70
2019-05-23T13:35:33.658Z,3.22
2019-05-23T13:38:03.294Z,3.10
2019-05-23T13:40:33.158Z,2.80
2019-05-23T13:43:06.815Z,2.95
2019-05-23T13:45:34.030Z,2.58
2019-05-23T13:48:03.509Z,3.45
2019-05-23T13:50:33.612Z,3.22
2019-05-23T13:53:04.449Z,4.45
2019-05-23T13:55:33.909Z,3.65
2019-05-23T13:58:03.378Z,3.42
2019-05-23T14:00:34.296Z,4.30
2019-05-23T14:03:04.985Z,3.75
2019-05-23T14:05:34.488Z,3.77
2019-05-23T14:08:12.454Z,3.37
2019-05-23T14:10:35.364Z,2.80
2019-05-23T14:13:04.899Z,2.50
2019-05-23T14:15:36.115Z,2.70
2019-05-23T14:18:06.337Z,3.00
2019-05-23T14:20:36.440Z,2.47
2019-05-23T14:23:07.935Z,2.55
2019-05-23T14:25:37.954Z,3.15
2019-05-23T14:28:08.777Z,3.27
2019-05-23T14:30:40.087Z,3.20
2019-05-23T14:33:11.333Z,3.62
2019-05-23T14:35:42.592Z,3.33
2019-05-23T14:38:29.703Z,3.33
2019-05-23T14:40:46.487Z,3.45
2019-05-23T14:43:18.456Z,3.65
2019-05-23T14:45:49.607Z,3.17
2019-05-23T14:48:20.762Z,3.30
2019-05-23T14:50:52.051Z,3.05
2019-05-23T14:53:23.117Z,3.87
2019-05-23T14:55:52.657Z,3.20
2019-05-23T14:58:22.225Z,4.58
2019-05-23T15:00:52.931Z,4.22
2019-05-23T15:03:23.006Z,4.75
2019-05-23T15:05:52.831Z,4.28
2019-05-23T15:08:22.343Z,3.67
2019-05-23T15:10:51.911Z,3.80
2019-05-23T15:13:21.362Z,4.08
2019-05-23T15:15:50.816Z,3.12
2019-05-23T15:18:20.292Z,3.37
2019-05-23T15:20:49.750Z,3.77
2019-05-23T15:23:19.234Z,4.55
2019-05-23T15:25:48.766Z,4.08
2019-05-23T15:28:18.225Z,4.53
2019-05-23T15:30:47.844Z,4.12
2019-05-23T15:33:17.265Z,4.37
2019-05-23T15:35:47.711Z,4.20
2019-05-23T15:38:17.331Z,4.22
2019-05-23T15:40:46.941Z,4.60
2019-05-23T15:43:16.447Z,4.67
2019-05-23T15:45:46.083Z,4.95
2019-05-23T15:48:15.884Z,4.50
2019-05-23T15:50:47.036Z,4.35
2019-05-23T15:53:18.142Z,4.90
2019-05-23T15:55:49.296Z,4.47
2019-05-23T15:58:22.228Z,4.33
2019-05-23T16:00:53.444Z,3.92
2019-05-23T16:03:31.129Z,4.17
2019-05-23T16:05:59.441Z,4.33
2019-05-23T16:08:29.059Z,4.12
2019-05-23T16:10:58.778Z,4.10
2019-05-23T16:13:28.371Z,3.90
2019-05-23T16:15:57.912Z,3.95
2019-05-23T16:18:27.653Z,4.15
2019-05-23T16:20:57.162Z,4.50
2019-05-23T16:23:26.608Z,5.03
2019-05-23T16:25:56.117Z,4.33
2019-05-23T16:28:25.643Z,5.03
2019-05-23T16:30:55.241Z,4.70
2019-05-23T16:33:24.690Z,5.45
2019-05-23T16:35:54.128Z,4.85
2019-05-23T16:38:23.627Z,4.80
2019-05-23T16:40:53.099Z,5.67
2019-05-23T16:43:22.647Z,5.45
2019-05-23T16:45:52.462Z,5.75
2019-05-23T16:48:22.079Z,6.62
2019-05-23T16:50:51.674Z,6.62
2019-05-23T16:53:21.216Z,6.10
2019-05-23T16:55:52.461Z,6.45
2019-05-23T16:58:23.649Z,6.37
2019-05-23T17:00:54.755Z,7.22
2019-05-23T17:03:25.901Z,7.00
2019-05-23T17:05:56.981Z,7.20
2019-05-23T17:08:28.338Z,7.00
2019-05-23T17:10:59.560Z,6.35
2019-05-23T17:13:30.682Z,6.33
2019-05-23T17:16:01.882Z,6.35
2019-05-23T17:18:33.004Z,6.90
2019-05-23T17:21:04.098Z,7.37
2019-05-23T17:23:35.221Z,6.83
2019-05-23T17:26:06.352Z,6.90
2019-05-23T17:28:37.875Z,6.75
2019-05-23T17:31:09.681Z,6.35
2019-05-23T17:33:39.114Z,6.70
2019-05-23T17:36:08.649Z,6.00
2019-05-23T17:38:38.113Z,6.95
2019-05-23T17:41:07.725Z,7.00
2019-05-23T17:43:37.337Z,6.25
2019-05-23T17:46:06.878Z,6.50
2019-05-23T17:48:36.327Z,17.75
2019-05-23T17:51:05.836Z,13.60
2019-05-23T17:53:35.307Z,8.35
2019-05-23T17:56:04.881Z,7.12
2019-05-23T17:58:35.000Z,10.25
2019-05-23T18:01:08.336Z,8.45
2019-05-23T18:03:38.000Z,7.87
2019-05-23T18:06:07.647Z,7.50
2019-05-23T18:11:22.382Z,8.38
2019-05-23T18:13:52.163Z,7.20
2019-05-23T18:16:21.800Z,6.75
2019-05-23T18:18:51.423Z,6.55
2019-05-23T18:21:21.804Z,6.53
2019-05-23T18:23:51.536Z,6.45
2019-05-23T18:26:21.249Z,5.58
2019-05-23T18:28:51.222Z,6.30
2019-05-23T18:31:22.757Z,5.85
2019-05-23T18:33:52.389Z,6.17
2019-05-23T18:36:21.909Z,6.97
2019-05-23T18:38:51.717Z,7.03
2019-05-23T18:41:21.224Z,6.90
2019-05-23T18:43:52.684Z,5.78
2019-05-23T18:46:24.681Z,4.80
2019-05-23T18:48:55.045Z,4.45
2019-05-23T18:51:25.222Z,4.15
2019-05-23T18:53:54.840Z,4.00
2019-05-23T18:56:24.631Z,4.55
2019-05-23T18:58:54.174Z,4.20
2019-05-23T19:01:25.735Z,4.87
2019-05-23T19:03:55.968Z,4.87
2019-05-23T19:06:25.862Z,5.25
2019-05-23T19:08:58.395Z,5.20
2019-05-23T19:11:27.823Z,6.42
2019-05-23T19:13:57.300Z,6.20
2019-05-23T19:16:28.383Z,6.40
2019-05-23T19:18:58.387Z,6.62
2019-05-23T19:21:29.183Z,6.12
2019-05-23T19:23:58.865Z,6.65
2019-05-23T19:26:28.607Z,5.87
2019-05-23T19:28:58.323Z,6.20
2019-05-23T19:31:28.152Z,6.03
2019-05-23T19:33:58.083Z,6.67
2019-05-23T19:36:27.619Z,7.80
2019-05-23T19:38:57.090Z,7.00
2019-05-23T19:41:36.695Z,6.58
2019-05-23T19:43:58.516Z,6.12
2019-05-23T19:46:28.305Z,6.80
2019-05-23T19:48:58.798Z,7.67
2019-05-23T19:51:28.481Z,7.35
2019-05-23T19:53:57.981Z,7.58
2019-05-23T19:56:27.496Z,8.78
2019-05-23T19:58:57.272Z,8.18
2019-05-23T20:01:31.791Z,7.17
2019-05-23T20:03:59.776Z,7.60
2019-05-23T20:06:29.394Z,7.33
2019-05-23T20:09:00.017Z,8.28
2019-05-23T20:11:29.847Z,7.72
2019-05-23T20:13:59.298Z,7.67
2019-05-23T20:16:28.828Z,8.50
2019-05-23T20:18:58.274Z,8.70
2019-05-23T20:21:27.806Z,8.15
2019-05-23T20:23:57.442Z,7.40
2019-05-23T20:26:26.878Z,7.85
2019-05-23T20:28:56.317Z,8.45
2019-05-23T20:31:25.777Z,8.88
2019-05-23T20:33:55.298Z,8.75
2019-05-23T20:36:24.839Z,9.00
2019-05-23T20:38:54.538Z,9.23
2019-05-23T20:41:23.970Z,9.18
2019-05-23T20:43:53.467Z,9.73
2019-05-23T20:46:23.268Z,9.20
2019-05-23T20:48:52.730Z,8.70
2019-05-23T20:51:22.356Z,9.30
2019-05-23T20:53:51.969Z,9.43
2019-05-23T20:56:21.624Z,10.18
2019-05-23T20:58:51.084Z,10.43
2019-05-23T21:01:22.165Z,10.70
2019-05-23T21:03:52.777Z,12.13
2019-05-23T21:06:22.225Z,11.85
2019-05-23T21:08:51.680Z,11.80
2019-05-23T21:11:22.072Z,11.83
2019-05-23T21:13:51.562Z,12.18
2019-05-23T21:16:20.985Z,12.47
2019-05-23T21:18:50.576Z,11.57
2019-05-23T21:21:20.216Z,11.93
2019-05-23T21:23:50.040Z,11.57
2019-05-23T21:26:19.680Z,11.45
2019-05-23T21:28:49.159Z,11.73
2019-05-23T21:31:20.257Z,11.48
2019-05-23T21:33:49.889Z,13.45
2019-05-23T21:36:19.376Z,14.25
2019-05-23T21:38:49.121Z,14.80
2019-05-23T21:41:18.633Z,15.18
2019-05-23T21:43:49.734Z,13.65
2019-05-23T21:46:19.433Z,13.03
2019-05-23T21:48:48.898Z,12.70
2019-05-23T21:51:18.404Z,13.80
2019-05-23T21:53:47.939Z,13.53
2019-05-23T21:56:17.419Z,13.72
2019-05-23T21:58:46.882Z,14.53
2019-05-23T22:01:20.972Z,15.05
2019-05-23T22:03:52.065Z,15.10
2019-05-23T22:06:25.268Z,14.98
2019-05-23T22:08:55.507Z,14.65
2019-05-23T22:11:25.180Z,14.78
2019-05-23T22:13:54.636Z,15.40
2019-05-23T22:16:24.453Z,15.28
2019-05-23T22:18:54.002Z,16.25
2019-05-23T22:21:23.480Z,17.17
2019-05-23T22:23:52.926Z,16.20
2019-05-23T22:26:22.775Z,14.28
2019-05-23T22:28:52.240Z,15.15
2019-05-23T22:31:22.356Z,16.48
2019-05-23T22:33:53.441Z,15.50
2019-05-23T22:36:24.095Z,15.63
2019-05-23T22:38:53.615Z,15.78
2019-05-23T22:41:23.294Z,15.13
2019-05-23T22:43:52.918Z,15.13
2019-05-23T22:46:24.017Z,16.25
2019-05-23T22:48:53.478Z,16.10
2019-05-23T22:51:22.919Z,15.70
2019-05-23T22:53:52.461Z,16.48
2019-05-23T22:56:21.923Z,17.48
2019-05-23T22:58:51.361Z,18.52
2019-05-23T23:01:22.450Z,18.25
2019-05-23T23:03:51.888Z,17.23
2019-05-23T23:06:21.570Z,16.50
2019-05-23T23:08:51.025Z,16.17
2019-05-23T23:11:20.472Z,16.62
2019-05-23T23:13:49.956Z,16.45
2019-05-23T23:16:19.385Z,16.25
2019-05-23T23:18:48.914Z,16.42
2019-05-23T23:21:18.355Z,17.32
2019-05-23T23:23:49.347Z,17.05
2019-05-23T23:26:18.819Z,16.62
2019-05-23T23:28:48.259Z,18.12
2019-05-23T23:31:17.768Z,18.42
2019-05-23T23:33:47.221Z,17.90
2019-05-23T23:36:16.670Z,18.67
2019-05-23T23:38:46.195Z,17.57
2019-05-23T23:41:15.659Z,18.23
2019-05-23T23:43:58.603Z,16.82
2019-05-23T23:46:18.115Z,16.55
2019-05-23T23:48:49.222Z,16.07
2019-05-23T23:51:20.300Z,16.02
2019-05-23T23:53:51.391Z,16.93
2019-05-23T23:56:22.547Z,16.15
2019-05-23T23:58:51.810Z,15.98
